WetterOnline ( http://www.wetteronline.de )

Wetter aktuell München

Aktuelles Wetter: München/Stadt (535m)

6-stündlich | Neueste Meldungen
Ortszeit Temperatur Wetter
So, 20.01. 1:00 -5.9° C wolkenlos
Sa, 19.01. 19:00 -2.6° C bedeckt
Sa, 19.01. 13:00 -1.9° C wolkig
Sa, 19.01. 7:00 -4.7° C leicht bewölkt
Sa, 19.01. 1:00 -2.7° C bedeckt
Fr, 18.01. 19:00 -1.2° C bedeckt
Fr, 18.01. 13:00 0.6° C bedeckt
Fr, 18.01. 7:00 -0.1° C bewölkt
Ortszeit Temperatur Wetter
So, 20.01. 6:30 -7.5° C leicht bewölkt
So, 20.01. 6:20 -7.5° C leicht bewölkt
So, 20.01. 6:10 -7.7° C wolkig
So, 20.01. 6:00 -7.6° C wolkig
So, 20.01. 5:50 -7.6° C wolkig
So, 20.01. 5:40 -7.6° C wolkig
So, 20.01. 5:30 -7.6° C bedeckt
So, 20.01. 5:00 -7.3° C fast wolkenlos
So, 20.01. 4:30 -6.7° C fast wolkenlos
So, 20.01. 4:00 -7.1° C fast wolkenlos
So, 20.01. 3:30 -6.7° C wolkenlos
Ortszeit Relative Feuchte Sichtweite
So, 20.01. 1:00 88% 19 km
Sa, 19.01. 19:00 75% 25 km
Sa, 19.01. 13:00 68% 25 km
Sa, 19.01. 7:00 91% 12 km
Sa, 19.01. 1:00 83% 28 km
Fr, 18.01. 19:00 78% 45 km
Fr, 18.01. 13:00 68% 50 km
Fr, 18.01. 7:00 73% 60 km
Ortszeit Relative Feuchte Sichtweite
So, 20.01. 6:30 90% 19 km
So, 20.01. 6:20 90% -
So, 20.01. 6:10 91% -
So, 20.01. 6:00 91% 17 km
So, 20.01. 5:50 91% -
So, 20.01. 5:40 90% -
So, 20.01. 5:30 92% 17 km
So, 20.01. 5:00 92% 16 km
So, 20.01. 4:30 90% 15 km
So, 20.01. 4:00 90% 15 km
So, 20.01. 3:30 91% 15 km
Ortszeit Niederschlagsmenge Niederschlagsart
So, 20.01. 1:00 0.0 l/m2 in 6 Std. -
Sa, 19.01. 19:00 0.0 l/m2 in 12 Std. -
Sa, 19.01. 13:00 0.0 l/m2 in 6 Std. -
Sa, 19.01. 7:00 0.0 l/m2 in 12 Std. -
Sa, 19.01. 1:00 0.0 l/m2 in 6 Std. -
Fr, 18.01. 19:00 0.1 l/m2 in 12 Std. -
Fr, 18.01. 13:00 0.1 l/m2 in 6 Std. Schnee, Sprühregen
Fr, 18.01. 7:00 1 l/m2 in 12 Std. Schnee, Sprühregen
Ortszeit Niederschlagsmenge Niederschlagsart
So, 20.01. 6:30 0.0 l/m2 in 1 Std. -
So, 20.01. 6:20 keine Meldung -
So, 20.01. 6:10 keine Meldung -
So, 20.01. 6:00 0.0 l/m2 in 1 Std. -
So, 20.01. 5:50 keine Meldung -
So, 20.01. 5:40 keine Meldung -
So, 20.01. 5:30 0.0 l/m2 in 1 Std. -
So, 20.01. 5:00 0.0 l/m2 in 1 Std. -
So, 20.01. 4:30 0.0 l/m2 in 1 Std. -
So, 20.01. 4:00 0.0 l/m2 in 1 Std. -
So, 20.01. 3:30 0.0 l/m2 in 1 Std. -
Ortszeit Stärke Spitze Richtung
km/h Bft. km/h Grad Sektor
So, 20.01. 1:00 4 1 14 150° SO
Sa, 19.01. 19:00 7 2 14 110° O
Sa, 19.01. 13:00 6 1 26 50° NO
Sa, 19.01. 7:00 9 2 24 90° O
Sa, 19.01. 1:00 11 2 22 110° O
Fr, 18.01. 19:00 7 2 25 90° O
Fr, 18.01. 13:00 13 3 37 310° NW
Fr, 18.01. 7:00 14 3 32 270° W
Ortszeit Stärke Spitze Richtung
km/h Bft. km/h Grad Sektor
So, 20.01. 6:30 2 1 6 270° W
So, 20.01. 6:20 2 1 - 270° W
So, 20.01. 6:10 4 1 - 270° W
So, 20.01. 6:00 4 1 4 280° W
So, 20.01. 5:50 4 1 - 280° W
So, 20.01. 5:40 4 1 - 260° W
So, 20.01. 5:30 4 1 4 270° W
So, 20.01. 5:00 4 1 7 280° W
So, 20.01. 4:30 6 1 7 250° W
So, 20.01. 4:00 4 1 7 250° W
So, 20.01. 3:30 4 1 7 250° W
Ortszeit Untergrenze Bedeckung Gattung
total tief tief mittel hoch
So, 20.01. 1:00 - 0/8 0/8 - - -
Sa, 19.01. 19:00 4800 m 8/8 8/8 - - -
Sa, 19.01. 13:00 4200 m 8/8 8/8 - - -
Sa, 19.01. 7:00 180 m 3/8 3/8 - - -
Sa, 19.01. 1:00 4500 m 8/8 8/8 - - -
Fr, 18.01. 19:00 5700 m 8/8 8/8 - - -
Fr, 18.01. 13:00 780 m 8/8 8/8 - - -
Fr, 18.01. 7:00 1200 m 7/8 7/8 - - -
Ortszeit Bedeckungsgrad in Achtel und Wolkenuntergrenze
So, 20.01. 6:30 1(2100m) 4(5700m)
So, 20.01. 6:20 1(2100m) 4(5700m)
So, 20.01. 6:10 6(5400m)
So, 20.01. 6:00 6(5400m)
So, 20.01. 5:50 6(5400m)
So, 20.01. 5:40 1(3900m) 5(5400m)
So, 20.01. 5:30 1(3900m) 9 9
So, 20.01. 5:00 1(5700m)
So, 20.01. 4:30 1(5100m) 1(5100m)
So, 20.01. 4:00 2(7200m)
So, 20.01. 3:30 keine Wolken
Ortszeit Luftdruck NN (hPa) Tendenz (hPa in 3 Std.)
So, 20.01. 1:00 1016 - 0,2
Sa, 19.01. 19:00 1016 - 0,4
Sa, 19.01. 13:00 1018 - 1,2
Sa, 19.01. 7:00 1019 - 0,4
Sa, 19.01. 1:00 1020 - 1,2
Fr, 18.01. 19:00 1022 0,0
Fr, 18.01. 13:00 1021 + 0,2
Fr, 18.01. 7:00 1019 + 2,3
Ortszeit Luftdruck NN (hPa) Tendenz (hPa in 3 Std.)
So, 20.01. 6:30 1016 - 0,2
So, 20.01. 6:20 1016 keine Meldung
So, 20.01. 6:10 1016 keine Meldung
So, 20.01. 6:00 1016 - 0,4
So, 20.01. 5:50 1016 keine Meldung
So, 20.01. 5:40 1017 keine Meldung
So, 20.01. 5:30 1017 - 0,2
So, 20.01. 5:00 1016 - 0,3
So, 20.01. 4:30 1016 - 0,1
So, 20.01. 4:00 1016 - 0,2
So, 20.01. 3:30 1016 - 0,2
Ortszeit Schneehöhe (cm)
So, 20.01. 1:00 3
Sa, 19.01. 19:00 3
Sa, 19.01. 13:00 3
Sa, 19.01. 7:00 3
Sa, 19.01. 1:00 3
Fr, 18.01. 19:00 3
Fr, 18.01. 13:00 3
Fr, 18.01. 7:00 3
Ortszeit Schneehöhe (cm)
So, 20.01. 6:30 3
So, 20.01. 6:20 3
So, 20.01. 6:10 3
So, 20.01. 6:00 3
So, 20.01. 5:50 3
So, 20.01. 5:40 3
So, 20.01. 5:30 3
So, 20.01. 5:00 3
So, 20.01. 4:30 3
So, 20.01. 4:00 3
So, 20.01. 3:30 3
Link zu dieser Seite / Seite empfehlen

Das Wetter in ...